createdAt,value
2022-10-07T00:00:31.940Z,8.48
2022-10-07T00:03:03.157Z,9.40
2022-10-07T00:05:34.834Z,8.93
2022-10-07T00:08:06.117Z,8.25
2022-10-07T00:10:40.671Z,8.58
2022-10-07T00:13:12.816Z,7.55
2022-10-07T00:15:44.158Z,8.28
2022-10-07T00:18:15.561Z,8.35
2022-10-07T00:20:46.963Z,9.65
2022-10-07T00:23:18.238Z,9.75
2022-10-07T00:25:49.405Z,12.68
2022-10-07T00:28:21.091Z,9.95
2022-10-07T00:31:00.748Z,10.75
2022-10-07T00:33:34.071Z,11.33
2022-10-07T00:36:10.303Z,12.25
2022-10-07T00:38:46.851Z,13.32
2022-10-07T00:41:21.191Z,12.58
2022-10-07T00:43:53.210Z,12.75
2022-10-07T00:46:29.612Z,11.93
2022-10-07T00:49:04.432Z,12.10
2022-10-07T00:51:37.108Z,11.30
2022-10-07T00:54:11.455Z,10.20
2022-10-07T00:56:44.884Z,12.55
2022-10-07T00:59:18.297Z,11.40
2022-10-07T01:01:50.036Z,12.15
2022-10-07T01:04:21.346Z,13.22
2022-10-07T01:06:52.750Z,12.10
2022-10-07T01:09:24.132Z,12.73
2022-10-07T01:12:00.283Z,11.48
2022-10-07T01:14:39.018Z,14.30
2022-10-07T01:17:13.775Z,12.07
2022-10-07T01:19:59.195Z,11.83
2022-10-07T01:22:37.169Z,10.68
2022-10-07T01:25:21.296Z,11.53
2022-10-07T01:27:55.837Z,12.80
2022-10-07T01:30:28.550Z,11.38
2022-10-07T01:33:02.962Z,12.00
2022-10-07T01:35:37.459Z,10.72
2022-10-07T01:38:11.685Z,12.18
2022-10-07T01:40:46.343Z,11.48
2022-10-07T01:43:20.677Z,10.95
2022-10-07T01:45:55.367Z,11.28
2022-10-07T01:48:26.693Z,11.25
2022-10-07T01:50:59.780Z,11.90
2022-10-07T01:53:39.197Z,12.33
2022-10-07T01:56:21.878Z,12.25
2022-10-07T01:59:02.053Z,10.90
2022-10-07T02:01:36.608Z,10.63
2022-10-07T02:04:26.073Z,11.65
2022-10-07T02:07:01.535Z,10.28
2022-10-07T02:09:36.430Z,12.90
2022-10-07T02:12:13.169Z,12.23
2022-10-07T02:14:47.637Z,11.25
2022-10-07T02:17:21.700Z,11.80
2022-10-07T02:19:56.375Z,10.78
2022-10-07T02:22:29.888Z,12.70
2022-10-07T02:25:01.619Z,11.85
2022-10-07T02:27:36.284Z,11.57
2022-10-07T02:30:11.605Z,12.53
2022-10-07T02:32:45.991Z,10.88
2022-10-07T02:35:21.196Z,11.18
2022-10-07T02:37:55.709Z,12.30
2022-10-07T02:40:30.091Z,10.85
2022-10-07T02:43:04.817Z,11.43
2022-10-07T02:45:40.069Z,12.58
2022-10-07T02:48:15.512Z,11.00
2022-10-07T02:50:49.751Z,10.98
2022-10-07T02:53:23.543Z,12.88
2022-10-07T02:55:56.528Z,11.25
2022-10-07T02:58:28.764Z,12.37
2022-10-07T03:01:02.291Z,10.93
2022-10-07T03:03:33.781Z,11.20
2022-10-07T03:06:05.898Z,12.47
2022-10-07T03:08:37.402Z,11.83
2022-10-07T03:11:08.717Z,10.90
2022-10-07T03:13:39.952Z,13.03
2022-10-07T03:16:11.312Z,12.35
2022-10-07T03:18:42.634Z,15.25
2022-10-07T03:21:13.927Z,15.18
2022-10-07T03:23:45.248Z,13.62
2022-10-07T03:26:18.110Z,12.65
2022-10-07T03:28:49.689Z,14.23
2022-10-07T03:31:20.849Z,13.43
2022-10-07T03:33:52.096Z,11.80
2022-10-07T03:36:23.887Z,11.15
2022-10-07T03:38:55.541Z,14.18
2022-10-07T03:41:26.811Z,14.05
2022-10-07T03:43:59.200Z,14.75
2022-10-07T03:46:30.683Z,15.58
2022-10-07T03:49:02.124Z,16.20
2022-10-07T03:51:33.510Z,15.08
2022-10-07T03:54:04.981Z,14.65
2022-10-07T03:56:36.477Z,12.88
2022-10-07T03:59:07.709Z,11.53
2022-10-07T04:01:39.841Z,12.40
2022-10-07T04:04:11.943Z,13.90
2022-10-07T04:06:44.050Z,12.95
2022-10-07T04:09:16.264Z,11.65
2022-10-07T04:11:47.591Z,12.78
2022-10-07T04:14:19.348Z,12.85
2022-10-07T04:16:50.720Z,12.85
2022-10-07T04:19:21.915Z,10.72
2022-10-07T04:21:53.496Z,13.08
2022-10-07T04:24:24.862Z,12.98
2022-10-07T04:26:56.185Z,11.33
2022-10-07T04:29:27.603Z,13.03
2022-10-07T04:31:58.944Z,12.50
2022-10-07T04:34:30.894Z,13.90
2022-10-07T04:37:02.135Z,12.13
2022-10-07T04:39:59.138Z,12.65
2022-10-07T04:42:06.701Z,10.90
2022-10-07T04:44:38.051Z,11.12
2022-10-07T04:47:09.247Z,11.68
2022-10-07T04:49:40.525Z,12.82
2022-10-07T04:52:11.863Z,12.65
2022-10-07T04:54:43.069Z,12.35
2022-10-07T04:57:14.374Z,12.10
2022-10-07T04:59:45.696Z,12.63
2022-10-07T05:02:17.153Z,13.18
2022-10-07T05:04:48.928Z,12.03
2022-10-07T05:07:20.042Z,12.58
2022-10-07T05:09:51.536Z,14.83
2022-10-07T05:12:24.547Z,15.90
2022-10-07T05:14:55.888Z,14.23
2022-10-07T05:17:27.414Z,15.25
2022-10-07T05:19:58.628Z,14.65
2022-10-07T05:22:30.138Z,12.95
2022-10-07T05:25:01.505Z,13.80
2022-10-07T05:27:33.038Z,13.90
2022-10-07T05:30:05.004Z,14.35
2022-10-07T05:32:36.231Z,11.95
2022-10-07T05:35:10.200Z,14.28
2022-10-07T05:37:41.491Z,12.80
2022-10-07T05:40:13.145Z,15.03
2022-10-07T05:42:44.497Z,13.88
2022-10-07T05:45:15.952Z,14.28
2022-10-07T05:47:48.116Z,14.28
2022-10-07T05:50:19.612Z,16.35
2022-10-07T05:52:52.197Z,14.30
2022-10-07T05:55:23.380Z,16.20
2022-10-07T05:57:55.172Z,15.53
2022-10-07T06:00:26.484Z,13.35
2022-10-07T06:02:58.560Z,15.20
2022-10-07T06:05:32.214Z,15.45
2022-10-07T06:08:03.582Z,20.20
2022-10-07T06:10:53.852Z,17.95
2022-10-07T06:13:25.237Z,11.80
2022-10-07T06:15:58.220Z,9.55
2022-10-07T06:18:29.566Z,8.18
2022-10-07T06:21:02.070Z,7.72
2022-10-07T06:23:34.287Z,8.08
2022-10-07T06:26:07.768Z,8.10
2022-10-07T06:28:40.837Z,7.72
2022-10-07T06:31:13.743Z,8.00
2022-10-07T06:33:45.559Z,7.62
2022-10-07T06:36:17.271Z,6.95
2022-10-07T06:38:50.176Z,6.90
2022-10-07T06:41:22.093Z,6.53
2022-10-07T06:43:57.519Z,7.42
2022-10-07T06:46:29.127Z,7.10
2022-10-07T06:49:01.572Z,7.10
2022-10-07T06:51:32.855Z,7.70
2022-10-07T06:54:04.899Z,7.50
2022-10-07T06:56:36.092Z,6.78
2022-10-07T06:59:07.305Z,7.55
2022-10-07T07:01:41.570Z,6.42
2022-10-07T07:04:12.989Z,7.45
2022-10-07T07:06:44.895Z,7.08
2022-10-07T07:09:16.155Z,6.70
2022-10-07T07:14:28.853Z,6.55
2022-10-07T07:17:00.122Z,7.45
2022-10-07T07:19:31.857Z,6.78
2022-10-07T07:22:03.218Z,8.03
2022-10-07T07:24:34.363Z,8.23
2022-10-07T07:27:05.778Z,7.65
2022-10-07T07:29:36.985Z,6.95
2022-10-07T07:32:08.229Z,6.97
2022-10-07T07:34:39.582Z,6.55
2022-10-07T07:37:11.244Z,6.80
2022-10-07T07:39:42.979Z,7.72
2022-10-07T07:42:14.350Z,7.30
2022-10-07T07:44:45.750Z,6.72
2022-10-07T07:47:17.138Z,9.10
2022-10-07T07:49:49.476Z,7.30
2022-10-07T07:52:20.868Z,6.67
2022-10-07T07:54:52.348Z,7.33
2022-10-07T07:57:24.354Z,7.40
2022-10-07T07:59:55.797Z,6.28
2022-10-07T08:02:27.085Z,7.33
2022-10-07T08:04:58.451Z,8.35
2022-10-07T08:07:29.583Z,6.83
2022-10-07T08:10:00.938Z,6.22
2022-10-07T08:12:33.893Z,6.55
2022-10-07T08:15:05.799Z,6.33
2022-10-07T08:17:37.328Z,7.12
2022-10-07T08:20:11.363Z,6.87
2022-10-07T08:22:44.197Z,5.55
2022-10-07T08:25:17.077Z,6.65
2022-10-07T08:27:48.592Z,6.33
2022-10-07T08:30:20.322Z,6.47
2022-10-07T08:32:51.731Z,7.58
2022-10-07T08:35:22.936Z,8.20
2022-10-07T08:37:54.125Z,6.15
2022-10-07T08:40:25.324Z,7.37
2022-10-07T08:42:56.777Z,6.72
2022-10-07T08:45:32.157Z,7.83
2022-10-07T08:48:06.520Z,7.35
2022-10-07T08:50:42.273Z,7.70
2022-10-07T08:53:16.994Z,7.47
2022-10-07T08:55:52.481Z,7.72
2022-10-07T08:58:46.423Z,9.63
2022-10-07T09:01:24.423Z,8.55
2022-10-07T09:04:02.224Z,8.25
2022-10-07T09:06:36.550Z,8.33
2022-10-07T09:09:13.764Z,8.73
2022-10-07T09:11:47.931Z,9.65
2022-10-07T09:14:24.569Z,9.95
2022-10-07T09:16:59.210Z,8.95
2022-10-07T09:19:34.623Z,9.60
2022-10-07T09:22:09.272Z,9.13
2022-10-07T09:24:40.809Z,9.45
2022-10-07T09:27:16.556Z,10.75
2022-10-07T09:29:47.836Z,11.90
2022-10-07T09:32:20.443Z,10.35
2022-10-07T09:34:53.505Z,10.72
2022-10-07T09:37:27.365Z,10.88
2022-10-07T09:40:03.832Z,11.50
2022-10-07T09:42:39.165Z,11.25
2022-10-07T09:45:22.587Z,12.23
2022-10-07T09:47:56.406Z,10.15
2022-10-07T09:50:37.928Z,10.90
2022-10-07T09:53:19.299Z,11.33
2022-10-07T09:55:52.685Z,12.23
2022-10-07T09:58:26.757Z,12.00
2022-10-07T10:01:00.853Z,9.20
2022-10-07T10:03:33.700Z,10.53
2022-10-07T10:06:08.645Z,10.50
2022-10-07T10:08:42.693Z,9.53
2022-10-07T10:11:28.159Z,10.95
2022-10-07T10:13:59.535Z,9.58
2022-10-07T10:16:36.318Z,10.80
2022-10-07T10:19:11.407Z,9.43
2022-10-07T10:21:44.389Z,11.28
2022-10-07T10:24:17.654Z,8.68
2022-10-07T10:27:03.866Z,10.28
2022-10-07T10:29:50.125Z,11.78
2022-10-07T10:32:48.797Z,9.40
2022-10-07T10:35:24.413Z,9.78
2022-10-07T10:38:21.560Z,10.75
2022-10-07T10:40:57.416Z,8.63
2022-10-07T10:43:35.159Z,10.90
2022-10-07T10:46:23.237Z,9.80
2022-10-07T10:48:58.008Z,8.93
2022-10-07T10:51:39.446Z,8.90
2022-10-07T10:54:20.209Z,9.90
2022-10-07T10:59:33.755Z,9.63
2022-10-07T11:02:11.041Z,8.88
2022-10-07T11:04:47.881Z,9.70
2022-10-07T11:07:23.322Z,10.00
2022-10-07T11:09:57.762Z,8.18
2022-10-07T11:12:32.723Z,9.45
2022-10-07T11:15:08.106Z,11.28
2022-10-07T11:17:39.874Z,9.90
2022-10-07T11:20:18.429Z,10.63
2022-10-07T11:22:53.748Z,11.73
2022-10-07T11:25:34.289Z,10.53
2022-10-07T11:28:12.138Z,10.18
2022-10-07T11:30:49.225Z,9.80
2022-10-07T11:33:26.648Z,10.13
2022-10-07T11:36:03.334Z,9.68
2022-10-07T11:38:37.906Z,10.00
2022-10-07T11:41:13.176Z,11.12
2022-10-07T11:43:47.176Z,9.73
2022-10-07T11:46:21.673Z,8.93
2022-10-07T11:48:56.035Z,9.93
2022-10-07T11:51:30.869Z,10.28
2022-10-07T11:54:06.228Z,9.53
2022-10-07T11:56:41.875Z,10.53
2022-10-07T11:59:29.089Z,10.43
2022-10-07T12:02:00.560Z,10.70
2022-10-07T12:04:41.085Z,10.35
2022-10-07T12:07:38.634Z,9.13
2022-10-07T12:10:23.226Z,11.88
2022-10-07T12:12:57.330Z,11.40
2022-10-07T12:15:33.062Z,10.70
2022-10-07T12:18:29.321Z,10.68
2022-10-07T12:21:10.210Z,9.60
2022-10-07T12:23:45.540Z,9.48
2022-10-07T12:26:54.841Z,13.00
2022-10-07T12:29:32.572Z,10.18
2022-10-07T12:32:04.805Z,10.18
2022-10-07T12:34:40.182Z,11.18
2022-10-07T12:37:47.055Z,9.58
2022-10-07T12:40:29.596Z,9.53
2022-10-07T12:43:09.179Z,13.50
2022-10-07T12:45:43.850Z,12.13
2022-10-07T12:48:20.175Z,12.25
2022-10-07T12:50:54.510Z,11.93
2022-10-07T12:53:27.798Z,11.20
2022-10-07T12:55:59.418Z,11.75
2022-10-07T12:59:00.729Z,14.03
2022-10-07T13:01:38.070Z,9.85
2022-10-07T13:04:25.997Z,11.25
2022-10-07T13:07:56.100Z,12.73
2022-10-07T13:10:56.153Z,12.10
2022-10-07T13:13:30.690Z,10.57
2022-10-07T13:16:05.129Z,10.10
2022-10-07T13:18:42.045Z,11.20
2022-10-07T13:21:20.094Z,11.48
2022-10-07T13:23:53.598Z,10.48
2022-10-07T13:26:27.272Z,11.00
2022-10-07T13:29:00.931Z,11.75
2022-10-07T13:31:34.854Z,11.55
2022-10-07T13:34:17.923Z,14.75
2022-10-07T13:36:49.233Z,11.15
2022-10-07T13:39:23.762Z,12.43
2022-10-07T13:41:57.298Z,11.03
2022-10-07T13:44:31.353Z,11.68
2022-10-07T13:47:05.537Z,13.68
2022-10-07T13:49:39.233Z,11.03
2022-10-07T13:52:17.535Z,11.33
2022-10-07T13:54:53.669Z,10.70
2022-10-07T13:57:26.025Z,11.65
2022-10-07T13:59:57.727Z,10.43
2022-10-07T14:02:29.458Z,10.82
2022-10-07T14:05:04.946Z,12.93
2022-10-07T14:07:38.107Z,11.85
2022-10-07T14:10:11.524Z,12.55
2022-10-07T14:12:46.442Z,10.95
2022-10-07T14:15:20.883Z,10.78
2022-10-07T14:17:54.650Z,11.75
2022-10-07T14:20:29.209Z,11.28
2022-10-07T14:23:02.602Z,11.15
2022-10-07T14:25:37.268Z,10.23
2022-10-07T14:28:20.400Z,10.75
2022-10-07T14:31:29.666Z,11.68
2022-10-07T14:34:21.659Z,9.70
2022-10-07T14:37:10.267Z,10.23
2022-10-07T14:39:43.476Z,11.40
2022-10-07T14:42:18.678Z,10.28
2022-10-07T14:44:50.966Z,10.28
2022-10-07T14:47:25.058Z,10.20
2022-10-07T14:49:59.335Z,10.15
2022-10-07T14:52:34.691Z,10.40
2022-10-07T14:55:09.086Z,10.23
2022-10-07T14:57:40.557Z,11.73
2022-10-07T15:00:18.306Z,10.43
2022-10-07T15:02:51.391Z,10.55
2022-10-07T15:05:23.685Z,10.82
2022-10-07T15:07:55.083Z,9.20
2022-10-07T15:10:27.087Z,10.45
2022-10-07T15:12:59.512Z,11.70
2022-10-07T15:15:30.989Z,10.95
2022-10-07T15:18:02.196Z,10.60
2022-10-07T15:20:33.558Z,11.80
2022-10-07T15:23:05.070Z,10.28
2022-10-07T15:25:36.760Z,11.22
2022-10-07T15:28:08.094Z,8.55
2022-10-07T15:30:39.717Z,8.73
2022-10-07T15:33:14.801Z,7.65
2022-10-07T15:35:46.296Z,7.60
2022-10-07T15:38:17.561Z,7.30
2022-10-07T15:40:55.662Z,6.30
2022-10-07T15:43:28.270Z,7.37
2022-10-07T15:46:01.370Z,6.47
2022-10-07T15:48:32.601Z,6.20
2022-10-07T15:51:04.811Z,6.08
2022-10-07T15:53:36.279Z,6.30
2022-10-07T15:56:09.412Z,5.62
2022-10-07T15:58:41.587Z,5.83
2022-10-07T16:01:13.645Z,5.55
2022-10-07T16:03:47.891Z,4.70
2022-10-07T16:06:21.752Z,5.85
2022-10-07T16:08:56.763Z,5.08
2022-10-07T16:11:29.777Z,4.80
2022-10-07T16:14:02.365Z,4.80
2022-10-07T16:16:34.189Z,5.33
2022-10-07T16:19:05.746Z,5.05
2022-10-07T16:21:39.487Z,5.20
2022-10-07T16:24:13.721Z,5.55
2022-10-07T16:26:46.132Z,6.58
2022-10-07T16:29:37.218Z,4.97
2022-10-07T16:32:10.526Z,5.10
2022-10-07T16:34:44.346Z,4.72
2022-10-07T16:37:16.254Z,4.70
2022-10-07T16:39:47.645Z,5.00
2022-10-07T16:42:19.183Z,4.80
2022-10-07T16:44:51.355Z,5.47
2022-10-07T16:47:22.698Z,5.70
2022-10-07T16:49:54.018Z,6.28
2022-10-07T16:52:25.499Z,6.37
2022-10-07T16:54:56.835Z,6.45
2022-10-07T16:57:28.147Z,7.30
2022-10-07T16:59:59.818Z,7.10
2022-10-07T17:02:31.197Z,7.87
2022-10-07T17:05:02.612Z,7.78
2022-10-07T17:07:34.206Z,7.28
2022-10-07T17:10:06.769Z,9.28
2022-10-07T17:12:38.316Z,7.90
2022-10-07T17:15:10.291Z,6.17
2022-10-07T17:17:41.541Z,6.60
2022-10-07T17:20:12.848Z,6.42
2022-10-07T17:22:44.410Z,7.67
2022-10-07T17:25:15.745Z,7.15
2022-10-07T17:27:47.159Z,7.78
2022-10-07T17:30:18.678Z,8.23
2022-10-07T17:32:54.151Z,7.65
2022-10-07T17:35:26.840Z,6.92
2022-10-07T17:37:59.128Z,6.17
2022-10-07T17:40:32.380Z,6.70
2022-10-07T17:43:07.450Z,5.45
2022-10-07T17:45:40.039Z,6.35
2022-10-07T17:48:12.584Z,7.00
2022-10-07T17:50:43.935Z,6.58
2022-10-07T17:53:15.353Z,6.95
2022-10-07T17:55:53.479Z,7.47
2022-10-07T17:58:24.889Z,6.90
2022-10-07T18:00:56.695Z,8.80
2022-10-07T18:03:28.058Z,6.67
2022-10-07T18:06:00.829Z,7.20
2022-10-07T18:08:32.502Z,7.47
2022-10-07T18:11:04.439Z,7.80
2022-10-07T18:13:54.358Z,8.08
2022-10-07T18:16:25.872Z,7.87
2022-10-07T18:18:58.536Z,8.00
2022-10-07T18:21:32.724Z,14.23
2022-10-07T18:24:07.168Z,8.48
2022-10-07T18:26:38.608Z,8.65
2022-10-07T18:29:10.344Z,8.23
2022-10-07T18:31:41.776Z,8.10
2022-10-07T18:34:13.337Z,8.53
2022-10-07T18:36:46.443Z,10.45
2022-10-07T18:39:17.811Z,9.85
2022-10-07T18:41:49.321Z,8.23
2022-10-07T18:44:22.164Z,9.28
2022-10-07T18:46:54.231Z,8.60
2022-10-07T18:49:25.539Z,8.30
2022-10-07T18:51:56.870Z,8.25
2022-10-07T18:54:28.183Z,8.95
2022-10-07T18:56:59.496Z,24.37
2022-10-07T18:59:30.813Z,8.43
2022-10-07T19:02:02.267Z,9.58
2022-10-07T19:04:33.959Z,9.23
2022-10-07T19:07:05.290Z,9.55
2022-10-07T19:09:36.522Z,8.35
2022-10-07T19:12:09.620Z,9.03
2022-10-07T19:14:40.849Z,9.25
2022-10-07T19:17:12.682Z,12.82
2022-10-07T19:19:44.645Z,9.73
2022-10-07T19:22:17.169Z,9.65
2022-10-07T19:25:05.977Z,10.38
2022-10-07T19:27:37.353Z,11.38
2022-10-07T19:30:11.409Z,11.65
2022-10-07T19:32:42.906Z,8.63
2022-10-07T19:35:14.851Z,9.45
2022-10-07T19:37:46.726Z,9.53
2022-10-07T19:40:19.467Z,8.18
2022-10-07T19:42:50.708Z,8.00
2022-10-07T19:45:23.939Z,8.85
2022-10-07T19:47:56.228Z,8.60
2022-10-07T19:50:27.637Z,8.13
2022-10-07T19:53:00.086Z,7.95
2022-10-07T19:55:32.666Z,9.13
2022-10-07T19:58:04.441Z,7.20
2022-10-07T20:00:35.723Z,7.42
2022-10-07T20:03:06.956Z,7.15
2022-10-07T20:05:40.693Z,8.30
2022-10-07T20:08:14.405Z,8.10
2022-10-07T20:10:45.661Z,9.45
2022-10-07T20:13:17.503Z,9.00
2022-10-07T20:15:50.141Z,8.70
2022-10-07T20:18:21.403Z,9.58
2022-10-07T20:20:52.883Z,8.65
2022-10-07T20:23:24.184Z,8.43
2022-10-07T20:25:55.406Z,8.23
2022-10-07T20:28:26.991Z,8.20
2022-10-07T20:31:01.105Z,10.18
2022-10-07T20:33:33.991Z,9.00
2022-10-07T20:36:06.759Z,9.68
2022-10-07T20:38:57.650Z,9.25
2022-10-07T20:41:47.374Z,9.88
2022-10-07T20:44:19.215Z,11.53
2022-10-07T20:46:51.760Z,9.45
2022-10-07T20:49:23.825Z,12.18
2022-10-07T20:51:56.859Z,10.05
2022-10-07T20:54:29.034Z,11.10
2022-10-07T20:57:01.041Z,10.20
2022-10-07T20:59:33.525Z,9.75
2022-10-07T21:02:09.482Z,11.85
2022-10-07T21:04:39.435Z,10.15
2022-10-07T21:07:11.408Z,9.70
2022-10-07T21:09:42.708Z,8.75
2022-10-07T21:12:17.023Z,8.50
2022-10-07T21:14:49.753Z,6.87
2022-10-07T21:17:20.968Z,5.97
2022-10-07T21:19:52.315Z,6.72
2022-10-07T21:22:23.541Z,4.80
2022-10-07T21:24:54.670Z,6.33
2022-10-07T21:27:25.872Z,6.78
2022-10-07T21:29:57.038Z,5.72
2022-10-07T21:32:28.464Z,9.18
2022-10-07T21:34:59.782Z,9.55
2022-10-07T21:37:31.911Z,10.08
2022-10-07T21:40:03.147Z,8.55
2022-10-07T21:42:34.807Z,9.20
2022-10-07T21:45:08.263Z,10.03
2022-10-07T21:47:39.384Z,9.85
2022-10-07T21:50:12.187Z,9.60
2022-10-07T21:52:44.322Z,10.95
2022-10-07T21:55:16.095Z,10.25
2022-10-07T21:57:47.309Z,10.10
2022-10-07T22:00:19.079Z,10.20
2022-10-07T22:02:52.029Z,9.70
2022-10-07T22:05:23.461Z,9.40
2022-10-07T22:08:12.876Z,10.10
2022-10-07T22:10:44.057Z,10.40
2022-10-07T22:13:15.350Z,10.68
2022-10-07T22:15:46.814Z,10.10
2022-10-07T22:18:18.631Z,10.28
2022-10-07T22:20:49.940Z,10.15
2022-10-07T22:23:21.268Z,10.60
2022-10-07T22:25:53.070Z,8.60
2022-10-07T22:28:24.513Z,9.38
2022-10-07T22:30:56.168Z,8.30
2022-10-07T22:33:27.481Z,6.58
2022-10-07T22:35:59.312Z,6.95
2022-10-07T22:38:31.168Z,7.08
2022-10-07T22:41:04.501Z,7.83
2022-10-07T22:43:38.358Z,7.67
2022-10-07T22:46:10.548Z,8.38
2022-10-07T22:48:43.219Z,8.80
2022-10-07T22:51:16.493Z,8.13
2022-10-07T22:53:52.113Z,9.10
2022-10-07T22:56:25.206Z,10.20
2022-10-07T22:58:58.875Z,10.40
2022-10-07T23:01:31.787Z,8.80
2022-10-07T23:04:04.784Z,10.53
2022-10-07T23:06:37.037Z,8.53
2022-10-07T23:09:08.890Z,8.28
2022-10-07T23:11:40.164Z,8.78
2022-10-07T23:14:11.834Z,7.47
2022-10-07T23:16:44.262Z,9.45
2022-10-07T23:19:15.750Z,7.95
2022-10-07T23:21:47.722Z,8.68
2022-10-07T23:24:19.102Z,9.78
2022-10-07T23:26:50.409Z,8.13
2022-10-07T23:29:21.773Z,8.80
2022-10-07T23:31:53.080Z,8.13
2022-10-07T23:34:24.408Z,8.28
2022-10-07T23:36:55.719Z,7.58
2022-10-07T23:39:27.651Z,7.72
2022-10-07T23:42:03.619Z,8.15
2022-10-07T23:44:36.155Z,6.00
2022-10-07T23:47:07.874Z,6.90
2022-10-07T23:49:39.116Z,5.65
2022-10-07T23:52:10.254Z,5.08
2022-10-07T23:54:41.690Z,5.47
2022-10-07T23:57:16.668Z,5.85
2022-10-07T23:59:47.833Z,5.87
